Boulder City, Nevada Weather observations

Data are for observation ending at time listed.
 Day   Time    Ave.   Ave.  Ave.  Vector   Max.   Stn.    Total    Solar   Ave.  
  of    of     Air    Rel.  Wind   Wind    Wind   Baro.  Precip.   Rad.    Soil  
Year   Day     Temp.  Hum.  Speed  Dir.    Gust   Pres.                    Temp. 
2023   (PST)    F      %     mph   deg.    mph     mb.     in.     W/m2     F   
------------------------------------------------------------------------------
  31    3:40   32.3    30    7.6   343     11.8   936.0    0.00       0    41.5
  31    3:50   32.0    31    6.6   348     13.8   936.2    0.00       0    41.4
  31    4:00   31.9    32    5.2   350     10.5   936.2    0.00       0    41.3
  31    4:10   32.2    32    5.4   351     10.7   936.3    0.00       0    41.2
  31    4:20   33.1    25    7.6   342     14.6   936.3    0.00       0    41.1
  31    4:30   33.2    25    7.3   342     15.4   936.3    0.00       0    41.0
  31    4:40   32.5    26    9.6   342     17.7   936.4    0.00       0    40.9
  31    4:50   32.3    25    8.6   346     18.6   936.7    0.00       0    40.8
  31    5:00   32.3    25    7.6   352     18.6   936.7    0.00       0    40.7
  31    5:10   32.1    26    9.3   355     17.4   936.7    0.00       0    40.7
  31    5:20   32.0    26    7.9   357     12.4   936.8    0.00       0    40.6
  31    5:30   31.7    26    7.4     3     13.7   936.9    0.00       0    40.5
  31    5:40   31.6    26    8.2   352     16.6   937.0    0.00       0    40.4
  31    5:50   31.7    26    8.4   349     14.4   937.2    0.00       0    40.3
  31    6:00   31.7    25    7.2   356     15.2   937.3    0.00       0    40.2
  31    6:10   31.8    24    6.9     1     14.6   937.4    0.00       0    40.2
  31    6:20   32.4    22    7.3   350     14.2   937.4    0.00       0    40.1
  31    6:30   32.4    22    7.3   350     16.6   937.5    0.00       2    40.0
  31    6:40   32.2    23    8.2   347     17.5   937.6    0.00       3    39.9
  31    6:50   31.8    24    7.1     1     16.3   937.7    0.00       7    39.9
  31    7:00   31.8    24    6.3   353     12.9   937.8    0.00      16    39.8
  31    7:10   32.4    23    6.7   356     15.1   937.8    0.00      55    39.7
  31    7:20   32.9    22   10.3   355     17.5   937.8    0.00      92    39.7
  31    7:30   33.0    23    8.3   354     18.2   938.0    0.00     129    39.6
  31    7:40   33.4    22    7.3   356     17.6   938.3    0.00     162    39.5
  31    7:50   33.8    22    8.3   360     16.1   938.5    0.00     194    39.5
  31    8:00   33.8    22    7.8   354     14.0   938.8    0.00     213    39.5
  31    8:10   34.1    22    8.6   349     20.2   939.0    0.00      53    39.4
  31    8:20   34.4    21    9.1   344     19.8   939.2    0.00      35    39.4
  31    8:30   34.4    21   10.3   353     20.7   939.4    0.00     202    39.4
  31    8:40   35.1    21    6.0   358     11.7   939.5    0.00     112    39.4
  31    8:50   35.7    20    5.9    12     12.5   939.6    0.00      35    39.4
  31    9:00   36.0    20    6.8   358     16.4   939.7    0.00     156    39.4
  31    9:10   35.8    21    7.9     3     14.4   939.7    0.00     330    39.5
  31    9:20   36.1    21    8.1     1     20.7   939.8    0.00     166    39.6
  31    9:30   36.2    22    7.9   344     17.0   939.9    0.00     491    39.5
  31    9:40   37.0    20    7.8   357     18.7   940.1    0.00     513    39.6
  31    9:50   37.3    20    7.0    16     16.1   940.0    0.00     534    39.7
  31   10:00   37.7    19    7.3     9     13.6   940.1    0.00     553    39.8
  31   10:10   37.6    19    9.3    10     17.9   940.2    0.00     570    39.9
  31   10:20   38.3    20    7.9     5     12.9   940.3    0.00     587    40.0
  31   10:30   38.9    21    7.3    15     12.8   940.2    0.00     603    40.0
  31   10:40   38.9    21    7.8    15     15.4   940.3    0.00     616    40.2
  31   10:50   39.4    20    6.8    18     15.0   940.3    0.00     628    40.3
  31   11:00   40.0    19    6.1    11     11.5   940.2    0.00     641    40.4
  31   11:10   40.5    20    7.0     8     13.6   940.3    0.00     651    40.5
  31   11:20   40.7    17    9.4     1     19.6   940.0    0.00     663    40.7
  31   11:30   41.2    17    8.9   351     18.3   939.8    0.00     669    40.9
  31   11:40   41.3    16    9.2     0     17.7   939.5    0.00     671    41.1
  31   11:50   41.9    17    9.1   342     18.9   939.4    0.00     674    41.4
  31   12:00   41.8    17   12.1   343     27.8   939.2    0.00     674    41.8
  31   12:10   41.5    17   11.6   339     21.6   939.1    0.00     669    42.1
  31   12:20   42.3    17    9.7   351     18.6   939.1    0.00     664    42.5
  31   12:30   42.7    18    7.7     3     17.6   938.9    0.00     658    42.8
  31   12:40   42.8    18    8.6     4     17.1   938.8    0.00     650    43.2
  31   12:50   42.8    18    9.5   350     20.5   938.7    0.00     644    43.6
  31   13:00   43.4    17    8.8   354     21.1   938.7    0.00     631    43.9
  31   13:10   43.5    17    9.3   342     16.8   938.6    0.00     619    44.2
  31   13:20   43.8    17    9.8     2     20.4   938.4    0.00     606    44.6
  31   13:30   43.7    19    8.3    13     13.7   938.3    0.00     588    44.9
  31   13:40   43.7    20    7.6    12     14.9   938.3    0.00     569    45.2
  31   13:50   44.0    19    7.6    12     13.1   938.1    0.00     547    45.5
  31   14:00   44.2    20    8.0    19     17.8   938.1    0.00     530    45.7
  31   14:10   44.8    19    8.2    10     17.5   937.9    0.00     510    46.0
  31   14:20   45.0    19    8.5    11     17.8   938.0    0.00     486    46.2
  31   14:30   45.2    20    8.1    10     14.5   938.3    0.00     460    46.4
  31   14:40   45.1    19    8.1     7     14.8   938.2    0.00     434    46.6
  31   14:50   45.3    18    8.8    14     18.3   938.2    0.00     406    46.7
  31   15:00   45.3    18    9.3    16     18.4   938.1    0.00     377    46.9
  31   15:10   45.6    18    8.1     5     16.4   938.3    0.00     347    47.0
  31   15:20   45.8    18    7.9     7     17.5   938.2    0.00     316    47.1
  31   15:30   45.5    18    8.1    12     13.8   938.3    0.00     284    47.2
  31   15:40   45.7    17    6.8    16     13.4   938.3    0.00     252    47.3
  31   15:50   45.6    18    7.4    12     13.4   938.3    0.00     220    47.3
  31   16:00   45.4    18    7.6    10     17.6   938.2    0.00     189    47.3
  31   16:10   45.3    18    7.6   354     16.3   938.2    0.00     157    47.4
  31   16:20   45.1    18    6.8   354     11.5   938.2    0.00     121    47.3
  31   16:30   44.8    18    6.9   351     11.7   938.2    0.00      80    47.3
  31   16:40   44.6    19    6.5     0     11.4   938.1    0.00      47    47.2
  31   16:50   43.8    20    7.4   356     14.3   938.0    0.00      19    47.1
  31   17:00   43.3    20    5.8     6     10.8   937.8    0.00      12    47.0
  31   17:10   43.4    21    6.6     1     12.3   937.7    0.00       7    46.9
  31   17:20   43.2    21    5.8   352     10.8   937.7    0.00       1    46.8
  31   17:30   43.2    21    6.8   352     12.9   937.7    0.00       0    46.7
  31   17:40   42.9    22    5.4   348      9.6   937.8    0.00       0    46.6
  31   17:50   42.7    22    6.0   345      9.9   937.8    0.00       0    46.4
  31   18:00   42.7    22    4.6   351     10.6   937.9    0.00       0    46.3
  31   18:10   42.1    22    3.6   354      6.1   938.0    0.00       0    46.2
  31   18:20   42.5    22    4.1    20      9.3   938.0    0.00       0    46.1
  31   18:30   42.7    21    4.7     6      9.8   938.1    0.00       0    45.9
  31   18:40   42.5    21    5.2   351     14.0   938.1    0.00       0    45.8
  31   18:50   42.3    21    4.1   360      9.6   938.2    0.00       0    45.7
  31   19:00   42.3    21    6.3    16     14.7   938.2    0.00       0    45.6
  31   19:10   42.3    20    7.4   359     12.3   938.2    0.00       0    45.4
  31   19:20   41.9    21    6.8   356     11.5   938.2    0.00       0    45.3
  31   19:30   41.5    21    5.5   359     10.4   938.3    0.00       0    45.2
  31   19:40   41.1    21    5.9     0     11.8   938.4    0.00       0    45.1
  31   19:50   41.3    21    5.8     5     12.2   938.3    0.00       0    45.0
  31   20:00   41.2    21    5.1   360     10.2   938.4    0.00       0    44.8
  31   20:10   41.4    21    5.8   351     10.4   938.4    0.00       0    44.7
  31   20:20   41.4    21    5.7   358     11.5   938.5    0.00       0    44.6
  31   20:30   41.0    22    5.4   359      9.9   938.5    0.00       0    44.5
  31   20:40   41.3    22    6.1     5     13.7   938.6    0.00       0    44.5
  31   20:50   41.8    21    7.1     2     12.9   938.6    0.00       0    44.3
  31   21:00   41.7    20    6.9     8     14.0   938.7    0.00       0    44.2
  31   21:10   41.1    21    5.5    11      9.0   938.9    0.00       0    44.2
  31   21:20   40.8    21    6.4     8     10.7   938.9    0.00       0    44.1
  31   21:30   40.2    23    6.5     5     12.2   939.0    0.00       0    44.0
  31   21:40   40.8    21    6.6   357     11.0   939.1    0.00       0    43.9
  31   21:50   40.4    22    5.5     0      8.8   939.1    0.00       0    43.8
  31   22:00   40.5    22    6.4     8     11.9   939.1    0.00       0    43.8
  31   22:10   40.6    22    6.9     7     14.0   939.1    0.00       0    43.7
  31   22:20   40.5    22    7.8   359     13.3   939.1    0.00       0    43.6
  31   22:30   40.8    21    6.5   359     14.7   939.1    0.00       0    43.5
  31   22:40   40.8    20    7.0   352     13.7   939.2    0.00       0    43.4
  31   22:50   40.6    21    7.6   358     16.3   939.2    0.00       0    43.4
  31   23:00   40.6    21    8.2     0     17.0   939.2    0.00       0    43.3
  31   23:10   40.6    20    7.3     4     12.0   939.2    0.00       0    43.2
  31   23:20   40.9    20    7.6   359     16.5   939.2    0.00       0    43.2
  31   23:30   40.9    19    6.6     4     12.4   939.2    0.00       0    43.1
  31   23:40   40.9    19    6.0   359     12.8   939.2    0.00       0    43.1
  31   23:50   40.4    19    4.3   356      8.0   939.1    0.00       0    43.0
  32    0:00   40.4    19    4.4    10     10.1   939.1    0.00       0    42.9
  32    0:10   40.4    19    5.6     2     11.4   939.1    0.00       0    42.9
  32    0:20   40.3    18    6.1     3     10.8   939.1    0.00       0    42.8
  32    0:30   39.6    20    6.6   357     11.2   939.0    0.00       0    42.7
  32    0:40   39.1    21    6.5   352     11.0   938.9    0.00       0    42.7
  32    0:50   38.9    21    6.2     2     11.3   938.9    0.00       0    42.6
  32    1:00   38.6    22    5.5   357      9.0   938.9    0.00       0    42.5
  32    1:10   38.4    22    5.3     8      9.0   939.0    0.00       0    42.4
  32    1:20   38.8    21    5.3    13      9.3   939.0    0.00       0    42.4
  32    1:30   38.1    22    3.9     2      6.8   938.9    0.00       0    42.3
  32    1:40   37.7    22    5.0     5     10.9   938.9    0.00       0    42.2
  32    1:50   38.5    22    5.2    14     10.4   938.9    0.00       0    42.2
  32    2:00   38.3    22    5.6    10     12.1   938.9    0.00       0    42.1
  32    2:10   38.5    22    5.4     2     10.1   938.9    0.00       0    42.0
  32    2:20   38.8    22    6.0     8     10.5   938.8    0.00       0    42.0
  32    2:30   39.1    21    5.8    12     10.4   938.8    0.00       0    41.9
  32    2:40   39.2    21    5.5    12     10.3   938.8    0.00       0    41.8
  32    2:50   38.8    21    5.3    10     10.9   938.8    0.00       0    41.8
  32    3:00   36.6    26    3.4    14      5.6   938.7    0.00       0    41.7
  32    3:10   35.6    27    3.5    17      6.5   938.6    0.00       0    41.6
  32    3:20   35.6    26    4.1    12      8.3   938.4    0.00       0    41.6
  32    3:30   37.3    24    5.0     4      9.3   938.3    0.00       0    41.5

Return to Boulder City, Nevada graphs page.


Western Regional Climate Center,wrcc@dri.edu